Tiempo atmosférico en la estación meteorológica de Lanzarote Aeropuerto, Las Palmas (14 m.)



Fecha
DESCASC
Temp. máxima en grados centígrados (hora)
DESCASC
Temp. mínima en grados centígrados (hora)
DESCASC
Temp. media en grados centígrados
DESCASC
Racha de viento máxima en m/sg (hora)
DESCASC
Velocidad máxima media en intervalos de 10 minutos(hora)
DESCASC
Precipitaciones diarias en mm
DESCASC
Precipitaciones de 00:00 a 06:00 en mm
DESCASC
Precipitaciones de 06:00 a 12:00 en mm
DESCASC
Precipitaciones de 12:00 a 18:00 en mm
DESCASC
Precipitaciones de 18:00 a 24:00 en mm
DESCASC
06-12-2018 25.8 (13:50) 18 (05:00) 21.9 8.89 (23:30) 6.39 (23:30) 0 0 0 0 0
05-12-2018 23.2 (11:50) 16.4 (06:00) 19.8 10.83 (14:30) 6.67 (21:10) 0 0 0 0 0
04-12-2018 24 (12:40) 13.4 (01:30) 18.7 8.33 (18:10) 4.17 (22:00) 0 0 0 0 0
03-12-2018 21.5 (14:20) 14.2 (00:00) 17.8 5.83 (10:40) 3.89 (03:40) 0 0 0 0 0
02-12-2018 22.5 (11:40) 15.3 (00:00) 18.9 8.89 (11:00) 5.83 (12:00) 0 0 0 0 0
01-12-2018 23.5 (12:30) 16.4 (00:00) 19.9 11.67 (09:20) 6.39 (10:00) 0 0 0 0 0
30-11-2018 23.9 (13:00) 15.9 (00:00) 19.9 9.72 (12:20) 6.67 (16:30) 0 0 0 0 0
29-11-2018 25.2 (11:10) 13.9 (00:00) 19.6 7.78 (23:30) 5.83 (23:30) 0 0 0 0 0
28-11-2018 22.6 (13:30) 15.4 (00:00) 19 9.17 (19:10) 4.72 (22:30) 0 0 0 0 0
27-11-2018 22.9 (15:00) 14.8 (00:00) 18.8 9.72 (15:50) 6.11 (17:00) 0 0 0 0 0
26-11-2018 23.8 (15:10) 15.9 (03:30) 19.8 11.67 (18:30) 7.22 (16:10) 0 0 0 0 0
25-11-2018 24.3 (13:10) 16.9 (00:00) 20.6 12.78 (14:00) 5.83 (15:00) 0 0 0 0 0
24-11-2018 22.3 (13:40) 12.5 (00:00) 17.4 9.72 (13:20) 5.83 (16:30) 0 0 0 0 0
23-11-2018 21.3 (12:40) 13.6 (00:00) 17.4 14.44 (13:00) 10.28 (11:10) 0.4 0 0 0.4 0
22-11-2018 19.3 (09:00) 13.9 (00:00) 16.6 10.28 (09:40) 6.94 (09:20) 6.5 0 4.7 1.8 0
21-11-2018 23.5 (14:40) 9.2 (00:00) 16.3 15 (10:30) 7.78 (15:00) -- 0 -- 0 0
20-11-2018 23.8 (15:10) 13.6 (00:00) 18.7 10.83 (15:10) 6.94 (15:10) 0 0 0 0 0
19-11-2018 22.3 (13:50) 14.9 (00:00) 18.6 13.89 (15:40) 7.5 (15:00) 1.3 0.1 1.2 0 0
18-11-2018 22.1 (14:10) 15.8 (00:00) 19 12.78 (11:40) 8.89 (15:00) 1 0 0.1 0.6 0.3
17-11-2018 24.5 (12:40) 14.5 (00:00) 19.5 15 (14:00) 11.11 (14:00) 3.1 0 0 3.1 0
16-11-2018 23.4 (12:30) 15.3 (00:00) 19.3 12.78 (16:10) 7.78 (10:20) 1 1 0 0 0
15-11-2018 23 (12:50) 13.7 (00:00) 18.3 12.5 (13:50) 8.89 (13:20) 1.1 0 0 1.1 0
14-11-2018 23.7 (12:40) 15.5 (00:00) 19.6 11.67 (14:40) 7.22 (01:30) 0 0 0 0 0
13-11-2018 23.3 (12:50) 16 (00:00) 19.6 15.28 (12:20) 11.94 (12:00) 0 0 0 0 0
12-11-2018 23.2 (14:30) 16.5 (00:00) 19.9 18.06 (16:30) 11.11 (15:00) 0.2 0 0 0.2 0
11-11-2018 24.5 (13:20) 14.7 (00:00) 19.6 12.5 (16:30) 7.5 (15:30) 0 0 0 0 0
10-11-2018 23.8 (14:10) 16 (00:00) 19.9 13.89 (17:20) 8.89 (15:40) 0 0 0 0 0

Gráficas

Temp. máximas Temp. mínimas Temp. medias Precipitaciones Rachas de viento máximas Velocidades máximas media en intervalos de 10 minutos

Datos horarios

Fecha y hora oficial Temperatura (ºC) Velocidad del viento (km/h) Dirección del viento Racha (km/h) Dirección de racha Precipitación (mm) Presión (hPa) Tendencia (hPa) Humedad (%)
2018-12-09 23:00:00 14.3 0 Calma 8 Norte 0 1023.5 0.6 76
2018-12-09 22:00:00 14.2 5 Norte 5 Norte 0 1023.2 0.7 77
2018-12-09 21:00:00 15.9 0 Calma 8 Oeste 0 1023 0.9 87
2018-12-09 20:00:00 17.1 2 Norte 11 Nordeste 0 1022.9 1.3 84
2018-12-09 19:00:00 18.6 5 Nordeste 18 Norte 0 1022.5 1 86
2018-12-09 18:00:00 20 10 Nordeste 24 Este 0 1022.1 0.5 83
2018-12-09 17:00:00 20.8 13 Este 22 Este 0 1021.6 -0.2 83
2018-12-09 16:00:00 21 16 Este 24 Este 0 1021.5 -1 80
2018-12-09 15:00:00 21.3 17 Este 28 Este 0 1021.6 -1.6 78
2018-12-09 14:00:00 21.6 19 Este 28 Este 0 1021.8 -1.8 76
2018-12-09 13:00:00 22.7 15 Este 30 Este 0 1022.5 -1 69
2018-12-09 12:00:00 22.5 18 Este 30 Nordeste 0 1023.2 0.2 68
2018-12-09 11:00:00 21.5 17 Nordeste 30 Este 0 1023.6 1 73
2018-12-09 10:00:00 20.3 17 Nordeste 28 Nordeste 0 1023.5 1.3 78
2018-12-09 09:00:00 17.2 7 Este 13 Este 0 1023 1.1 82
2018-12-09 08:00:00 13 6 Nordeste 13 Norte 0 1022.6 0.6 85
2018-12-09 07:00:00 13.3 10 Norte 11 Norte 0 1022.2 0.1 84
2018-12-09 06:00:00 12.3 3 Noroeste 13 Norte 0 1021.9 -0.1 92
2018-12-09 05:00:00 13.5 12 Norte 17 Norte 0 1022 -0.3 95
2018-12-09 04:00:00 13.7 9 Norte 13 Norte 0 1022.1 -0.4 96
2018-12-09 03:00:00 14.1 12 Norte 15 Norte 0 1022 -0.8 96
2018-12-09 02:00:00 14.3 11 Norte 15 Norte 0 1022.3 -0.7 95
2018-12-09 01:00:00 13.1 12 Norte 13 Norte 0 1022.5 -0.5 91
2018-12-09 00:00:00 14.2 8 Norte 13 Norte 0 1022.8 0.1 90
2018-12-08 23:00:00 15.7 9 Norte 21 Norte 0 1023 0.7 89
2018-12-08 22:00:00 15.7 8 Norte 15 Norte 0 1023 0.9 89
2018-12-08 21:00:00 16.8 11 Nordeste 24 Norte 0 1022.7 1.1 88
2018-12-08 20:00:00 17.5 15 Norte 28 Nordeste 0 1022.3 1 86
2018-12-08 19:00:00 18.3 13 Nordeste 21 Nordeste 0 1022.1 1 83
2018-12-08 18:00:00 19.8 16 Norte 26 Norte 0 1021.6 0.4 76
2018-12-08 17:00:00 22.1 16 Nordeste 32 Nordeste 0 1021.3 -0.6 66
2018-12-08 16:00:00 22.7 20 Nordeste 35 Este 0 1021.1 -1.4 65
2018-12-08 15:00:00 22.9 23 Nordeste 35 Nordeste 0 1021.2 -2.2 64
2018-12-08 14:00:00 23.1 21 Este 35 Este 0 1021.9 -2.3 63
2018-12-08 13:00:00 23.2 21 Nordeste 33 Este 0 1022.5 -1.6 61
2018-12-08 12:00:00 22.7 19 Nordeste 32 Este 0 1023.4 0.2 65
2018-12-08 11:00:00 21.9 19 Nordeste 35 Nordeste 0 1024.2 1.4 69
2018-12-08 10:00:00 20.6 23 Nordeste 39 Nordeste 0 1024.1 1.8 73
2018-12-08 09:00:00 19.3 18 Nordeste 30 Nordeste 0 1023.2 1.4 79
2018-12-08 08:00:00 17.5 15 Nordeste 28 Norte 0 1022.8 0.8 86
2018-12-08 07:00:00 17.7 14 Nordeste 22 Nordeste 0 1022.3 0 89
2018-12-08 06:00:00 17.6 14 Norte 22 Norte 0 1021.8 -0.4 89
2018-12-08 05:00:00 18.1 12 Nordeste 22 Nordeste 0 1022 -0.4 86
2018-12-08 04:00:00 17.4 13 Nordeste 18 Norte 0 1022.3 -0.5 88
2018-12-08 03:00:00 16.6 13 Norte 18 Nordeste 0 1022.2 -0.9 91
2018-12-08 02:00:00 16.6 10 Norte 17 Norte 0 1022.4 -1 91
2018-12-08 01:00:00 16.7 11 Norte 17 Norte 0 1022.8 -0.9 91
2018-12-08 00:00:00 17.7 12 Norte 28 Norte 0 1023.1 -0.7 87
2018-12-07 23:00:00 18 17 Nordeste 33 Norte 0 1023.4 0 86
2018-12-07 22:00:00 18.3 19 Norte 33 Norte 0 1023.7 0.5 85
2018-12-07 21:00:00 17.7 21 Norte 30 Nordeste 0 1023.8 0.9 87
2018-12-07 20:00:00 17.7 11 Norte 28 Norte 0 1023.4 1 87
2018-12-07 19:00:00 18.4 14 Norte 28 Norte 0 1023.2 1.1 85
2018-12-07 18:00:00 19.5 19 Norte 35 Norte 0 1022.9 1 80
2018-12-07 17:00:00 21.1 25 Norte 33 Norte 0 1022.4 0.1 72
2018-12-07 16:00:00 23.5 23 Norte 33 Noroeste 0 1022.1 -1 62
2018-12-07 15:00:00 23.4 19 Nordeste 35 Nordeste 0 1021.9 -1.9 66
2018-12-07 14:00:00 23.3 21 Este 33 Nordeste 0 1022.3 -1.9 67
2018-12-07 13:00:00 22.9 16 Este 30 Este 0 1023.1 -0.9 70
2018-12-07 12:00:00 21.4 19 Este 28 Este 0 1023.8 0.6 76
2018-12-07 11:00:00 21.9 13 Este 24 Este 0 1024.2 1.4 71
2018-12-07 10:00:00 20.8 17 Nordeste 24 Nordeste 0 1024 2 76
2018-12-07 09:00:00 19.3 14 Nordeste 22 Nordeste 0 1023.2 1.8 83
2018-12-07 08:00:00 17 9 Norte 18 Norte 0 1022.8 1.6 92
2018-12-07 07:00:00 17.5 8 Nordeste 24 Nordeste 0 1022 0.7 90
2018-12-07 06:00:00 17.8 13 Nordeste 26 Nordeste 0 1021.4 -0.1 89
2018-12-07 05:00:00 18.1 14 Nordeste 30 Nordeste 0 1021.2 -0.5 86
2018-12-07 04:00:00 18.3 19 Nordeste 30 Nordeste 0 1021.3 -0.4 81
2018-12-07 03:00:00 18.6 17 Nordeste 26 Nordeste 0 1021.5 -0.5 77
2018-12-07 02:00:00 19.5 6 Norte 30 Norte 0 1021.7 -0.5 46
2018-12-07 01:00:00 20.6 22 Norte 30 Norte 0 1021.7 -0.2 43
2018-12-07 00:00:00 20.4 21 Norte 32 Norte 0 1022 0.4 41
2018-12-06 23:00:00 20.6 17 Norte 26 Nordeste 0 1022.2 0.9 40
2018-12-06 22:00:00 21 19 Norte 28 Norte 0 1021.9 1 40
2018-12-06 21:00:00 20.5 17 Norte 24 Norte 0 1021.6 1 36
2018-12-06 20:00:00 20.6 18 Norte 24 Norte 0 1021.3 1 35
2018-12-06 19:00:00 20.5 16 Norte 26 Norte 0 1020.9 0.6 36
2018-12-06 18:00:00 22.4 13 Norte 28 Nordeste 0 1020.6 0.4 34
2018-12-06 17:00:00 24.7 15 Nordeste 28 Nordeste 0 1020.3 -0.3 25
2018-12-06 16:00:00 24.9 17 Nordeste 30 Nordeste 0 1020.3 -1.2 27
2018-12-06 15:00:00 25.5 16 Nordeste 30 Nordeste 0 1020.2 -2 27
2018-12-06 14:00:00 25.2 19 Nordeste 30 Nordeste 0 1020.6 -1.7 30
2018-12-06 13:00:00 24.8 17 Nordeste 26 Nordeste 0 1021.5 -0.5 34
2018-12-06 12:00:00 24.5 13 Este 26 Este 0 1022.2 1.3 40
2018-12-06 11:00:00 23.8 17 Este 30 Este 0 1022.3 2.1 47
2018-12-06 10:00:00 22.9 16 Nordeste 28 Nordeste 0 1022 2.3 52
2018-12-06 09:00:00 20.4 17 Nordeste 28 Nordeste 0 1020.9 1.7 80
2018-12-06 08:00:00 18.6 20 Nordeste 28 Nordeste 0 1020.2 1.1 83
2018-12-06 07:00:00 18.4 15 Nordeste 26 Nordeste 0 1019.7 0.3 86
2018-12-06 06:00:00 18.4 14 Nordeste 24 Nordeste 0 1019.2 -0.1 85
2018-12-06 05:00:00 18.1 13 Nordeste 18 Nordeste 0 1019.1 -0.2 86
2018-12-06 04:00:00 18.2 12 Nordeste 24 Nordeste 0 1019.4 0.1 88
2018-12-06 03:00:00 18.8 15 Nordeste 26 Nordeste 0 1019.3 -0.4 84
2018-12-06 02:00:00 18.7 14 Nordeste 21 Nordeste 0 1019.3 -0.5 79
2018-12-06 01:00:00 19.3 11 Nordeste 24 Nordeste 0 1019.3 -0.2 71
2018-12-06 00:00:00 19.7 15 Nordeste 28 Nordeste 0 1019.7 0.6 76
2018-12-05 23:00:00 20.1 17 Nordeste 32 Nordeste 0 1019.8 1.4 64
2018-12-05 22:00:00 20.1 21 Nordeste 33 Nordeste 0 1019.5 1.5 71
2018-12-05 21:00:00 21.2 22 Nordeste 33 Nordeste 0 1019.1 1.7 51
2018-12-05 20:00:00 20.6 15 Norte 26 Nordeste 0 1018.4 1.4 45
2018-12-05 19:00:00 21 14 Nordeste 24 Nordeste 0 1018 1.1 50
2018-12-05 18:00:00 21.7 14 Nordeste 32 Este 0 1017.4 0.5 49
2018-12-05 17:00:00 22.3 17 Este 32 Este 0 1017 -0.1 47
2018-12-05 16:00:00 22.4 19 Este 33 Este 0 1016.9 -1 53
2018-12-05 15:00:00 22.8 21 Este 39 Este 0 1016.9 -1.7 50
2018-12-05 14:00:00 23 22 Este 35 Este 0 1017.1 -2 48
2018-12-05 13:00:00 22.9 20 Este 32 Este 0 1017.9 -0.8 53
2018-12-05 12:00:00 23.1 20 Este 32 Este 0 1018.6 0.7 53
2018-12-05 11:00:00 22.9 20 Este 30 Este 0 1019.1 2.1 54
2018-12-05 10:00:00 22.3 12 Este 22 Nordeste 0 1018.7 2 64
2018-12-05 09:00:00 20.5 12 Nordeste 18 Nordeste 0 1017.9 1.6 72
2018-12-05 08:00:00 17.3 14 Nordeste 21 Norte 0 1017 1 77
2018-12-05 07:00:00 16.6 14 Norte 18 Norte 0 1016.7 0.7 92
2018-12-05 06:00:00 16.4 14 Norte 17 Norte 0 1016.3 0.2 91
2018-12-05 05:00:00 16.8 14 Norte 17 Norte 0 1016 -0.5 90
2018-12-05 04:00:00 17.7 13 Norte 18 Norte 0 1016 -0.7 85
2018-12-05 03:00:00 17.9 15 Norte 18 Norte 0 1016.1 -0.7 86
2018-12-05 02:00:00 18.7 13 Norte 21 Nordeste 0 1016.5 -0.2 83
2018-12-05 01:00:00 19.9 15 Nordeste 24 Nordeste 0 1016.7 0.5 59
2018-12-05 00:00:00 18.9 14 Norte 18 Nordeste 0 1016.8 0.6 52
2018-12-04 23:00:00 19.3 5 Nordeste 18 Norte 0 1016.7 1 41
2018-12-04 22:00:00 20.5 15 Norte 21 Norte 0 1016.2 0.9 38
2018-12-04 21:00:00 20.1 10 Norte 15 Norte 0 1016.2 1.2 39
2018-12-04 20:00:00 20.1 5 Norte 15 Norte 0 1015.7 0.8 40
2018-12-04 19:00:00 21.6 12 Norte 30 Noroeste 0 1015.3 0.4 37
2018-12-04 18:00:00 22.1 9 Norte 13 Nordeste 0 1015 -0.1 41
2018-12-04 17:00:00 23.2 6 Este 18 Este 0 1014.9 -0.8 49
2018-12-04 16:00:00 23 13 Este 18 Este 0 1014.9 -1.7 58
2018-12-04 15:00:00 23.1 10 Este 15 Este 0 1015.1 -2.1 59
2018-12-04 14:00:00 23.5 9 Este 17 Este 0 1015.7 -2.1 60
2018-12-04 13:00:00 23.6 11 Este 18 Este 0 1016.6 -1.1 61
2018-12-04 12:00:00 23.1 13 Este 18 Este 0 1017.2 0.1 62
2018-12-04 11:00:00 23.3 11 Este 21 Este 0 1017.8 1 57
2018-12-04 10:00:00 22.6 10 Este 21 Este 0 1017.7 1.1 59
2018-12-04 09:00:00 19.9 12 Norte 17 Nordeste 0 1017.1 0.8 67
2018-12-04 08:00:00 16.3 9 Norte 17 Norte 0 1016.8 0.5 85
2018-12-04 07:00:00 15.6 12 Norte 15 Norte 0 1016.6 -0.3 90
2018-12-04 06:00:00 16.5 7 Norte 15 Norte 0 1016.3 -0.9 95
2018-12-04 05:00:00 16.7 11 Norte 15 Norte 0 1016.3 -0.8 96
2018-12-04 04:00:00 17.3 11 Norte 18 Norte 0 1016.9 -0.5 94
2018-12-04 03:00:00 16.9 13 Norte 18 Norte 0 1017.2 -0.5 94
2018-12-04 02:00:00 14.1 12 Norte 13 Norte 0 1017.1 -0.7 64
2018-12-04 01:00:00 14.1 4 Norte 8 Norte 0 1017.4 -0.6 59
2018-12-04 00:00:00 14.7 3 Noroeste 5 Noroeste 0 1017.7 -0.5 62
2018-12-03 23:00:00 14.6 2 Sudeste 5 Sudeste 0 1017.8 -0.1 59
2018-12-03 22:00:00 14.9 4 Norte 8 Norte 0 1018 0.2 56
2018-12-03 21:00:00 14.8 4 Norte 8 Norte 0 1018.2 0.8 64
2018-12-03 20:00:00 16.3 7 Nordeste 17 Norte 0 1017.9 0.6 72
2018-12-03 19:00:00 17.8 9 Norte 9 Norte 0 1017.8 0.5 86
2018-12-03 18:00:00 19.5 6 Este 11 Este 0 1017.4 0 85
2018-12-03 17:00:00 20.6 7 Sudeste 13 Este 0 1017.3 -0.6 80
2018-12-03 16:00:00 20.9 10 Sudeste 15 Sudeste 0 1017.3 -1.3 78
2018-12-03 15:00:00 21.1 11 Sudeste 17 Sudeste 0 1017.4 -1.9 76
2018-12-03 14:00:00 21.3 11 Sudeste 15 Sudeste 0 1017.9 -2 75
2018-12-03 13:00:00 21.3 10 Sudeste 17 Sudeste 0 1018.6 -1.3 75
2018-12-03 12:00:00 21 10 Este 17 Este 0 1019.3 -0.3 75
2018-12-03 11:00:00 20.6 12 Este 21 Este 0 1019.9 0.8 76
2018-12-03 10:00:00 20.1 12 Este 18 Este 0 1019.9 0.8 77
2018-12-03 09:00:00 17.3 10 Norte 15 Norte 0 1019.6 0.7 88
2018-12-03 08:00:00 14.7 12 Norte 15 Norte 0 1019.1 0.3 94
2018-12-03 07:00:00 14.7 10 Norte 17 Norte 0 1019.1 0 93
2018-12-03 06:00:00 15.4 12 Norte 18 Norte 0 1018.9 -0.5 90
2018-12-03 05:00:00 15.3 14 Norte 18 Norte 0 1018.8 -0.8 92
2018-12-03 04:00:00 14.8 13 Norte 18 Norte 0 1019.1 -0.9 92
2018-12-03 03:00:00 15.4 13 Norte 18 Norte 0 1019.4 -0.9 91
2018-12-03 02:00:00 14.5 12 Norte 15 Norte 0 1019.6 -1.2 92
2018-12-03 01:00:00 15.4 12 Norte 17 Norte 0 1020 -0.9 91
2018-12-03 00:00:00 15.4 12 Norte 18 Norte 0 1020.3 -0.4 91
2018-12-02 23:00:00 16.8 14 Norte 17 Norte 0 1020.8 0.5 88
2018-12-02 22:00:00 16.5 10 Norte 17 Norte 0 1020.9 0.9 89
2018-12-02 21:00:00 17.2 13 Norte 24 Noroeste 0 1020.7 1.1 87
2018-12-02 20:00:00 17.3 10 Norte 13 Norte 0 1020.3 0.8 84
2018-12-02 19:00:00 19.1 7 Nordeste 15 Este 0 1020 0.6 78
2018-12-02 18:00:00 19.7 8 Este 15 Este 0 1019.6 0.1 76
2018-12-02 17:00:00 20.6 11 Este 15 Este 0 1019.5 -0.3 72
2018-12-02 16:00:00 21.2 9 Sudeste 17 Sudeste 0 1019.4 -1.4 69
2018-12-02 15:00:00 21.6 10 Este 21 Este 0 1019.5 -2 66
2018-12-02 14:00:00 21.9 13 Este 24 Este 0 1019.8 -2.2 64
2018-12-02 13:00:00 21.7 18 Este 30 Este 0 1020.8 -1.2 64
2018-12-02 12:00:00 21.7 21 Este 30 Este 0 1021.5 -0.2 62
2018-12-02 11:00:00 21.4 20 Nordeste 32 Nordeste 0 1022 0.7 61
2018-12-02 10:00:00 20.9 17 Nordeste 28 Nordeste 0 1022 1.1 61
2018-12-02 09:00:00 19.4 19 Nordeste 26 Norte 0 1021.7 1.3 66
2018-12-02 08:00:00 17 12 Norte 22 Norte 0 1021.3 1 77
2018-12-02 07:00:00 18.2 11 Norte 22 Norte 0 1020.9 0.7 74
2018-12-02 06:00:00 18.5 15 Norte 24 Norte 0 1020.4 0.2 73
2018-12-02 05:00:00 18.5 8 Norte 17 Norte 0 1020.3 -0.1 74
2018-12-02 04:00:00 18.7 13 Norte 21 Norte 0 1020.2 -0.5 71
2018-12-02 03:00:00 18.6 13 Norte 21 Norte 0 1020.2 -0.7 72
2018-12-02 02:00:00 18.6 15 Norte 22 Norte 0 1020.4 -0.7 72
2018-12-02 01:00:00 18.4 10 Norte 26 Norte 0 1020.7 -0.5 76
2018-12-02 00:00:00 18.2 14 Norte 22 Norte 0 1020.9 0.2 77
2018-12-01 23:00:00 16.7 14 Norte 18 Norte 0 1021.1 0.6 88
2018-12-01 22:00:00 17.4 13 Norte 17 Norte 0 1021.2 1 85
2018-12-01 21:00:00 16.9 11 Norte 22 Norte 0 1020.7 0.8 86
2018-12-01 20:00:00 18 13 Norte 30 Norte 0 1020.5 1 82
2018-12-01 19:00:00 18.8 13 Norte 26 Nordeste 0 1020.2 1.1 77
2018-12-01 18:00:00 19.9 19 Nordeste 32 Nordeste 0 1019.9 0.8 73
2018-12-01 17:00:00 21.2 23 Nordeste 33 Nordeste 0 1019.5 -0.1 69
2018-12-01 16:00:00 22.9 20 Nordeste 32 Norte 0 1019.1 -1.5 56
2018-12-01 15:00:00 22.8 18 Este 32 Este 0 1019.1 -2.4 62
2018-12-01 14:00:00 22.9 18 Este 32 Nordeste 0 1019.6 -2.5 64
2018-12-01 13:00:00 23.1 15 Norte 32 Norte 0 1020.6 -1.4 58
2018-12-01 12:00:00 22.7 19 Norte 32 Nordeste 0 1021.5 0.2 61
2018-12-01 11:00:00 21.7 21 Norte 37 Norte 0 1022.1 1.3 66
2018-12-01 10:00:00 20.7 23 Norte 42 Norte 0 1022 1.8 71
2018-12-01 09:00:00 19.8 20 Norte 28 Norte 0 1021.3 1.6 81
2018-12-01 08:00:00 17.7 11 Norte 21 Noroeste 0 1020.8 1.5 86
2018-12-01 07:00:00 17.8 8 Norte 15 Norte 0 1020.2 0.7 87
2018-12-01 06:00:00 16.6 11 Norte 15 Norte 0 1019.7 0.2 90
2018-12-01 05:00:00 17.3 10 Nordeste 24 Norte 0 1019.3 -0.3 88
2018-12-01 04:00:00 17.6 15 Norte 18 Norte 0 1019.5 -0.5 87
2018-12-01 03:00:00 18.8 11 Norte 26 Nordeste 0 1019.5 -1.1 82
2018-12-01 02:00:00 19.3 15 Nordeste 24 Nordeste 0 1019.6 -1.3 82
2018-12-01 01:00:00 19.5 15 Norte 33 Nordeste 0 1020 -0.7 77
2018-12-01 00:00:00 19.6 18 Nordeste 33 Norte 0 1020.6 -0.2 79
2018-11-30 23:00:00 19.4 21 Nordeste 32 Nordeste 0 1020.9 0.5 79
2018-11-30 22:00:00 19.4 14 Nordeste 30 Nordeste 0 1020.7 0.5 79
2018-11-30 21:00:00 19.3 21 Norte 35 Norte 0 1020.8 1 72
2018-11-30 20:00:00 19.1 22 Norte 33 Norte 0 1020.4 1.1 73
2018-11-30 19:00:00 19.2 17 Norte 28 Norte 0 1020.2 1.2 74
2018-11-30 18:00:00 20.2 23 Norte 30 Norte 0 1019.8 0.9 73
2018-11-30 17:00:00 22 17 Nordeste 32 Norte 0 1019.3 0.1 66
2018-11-30 16:00:00 22.6 16 Nordeste 28 Este 0 1019 -1.1 64
2018-11-30 15:00:00 23.4 17 Norte 32 Nordeste 0 1018.9 -2.3 61
2018-11-30 14:00:00 22.7 21 Este 33 Este 0 1019.2 -2.2 62
2018-11-30 13:00:00 23.7 15 Nordeste 35 Noroeste 0 1020.1 -1.2 61
2018-11-30 12:00:00 23.5 19 Norte 32 Este 0 1021.2 0.3 60
2018-11-30 11:00:00 22 15 Nordeste 24 Nordeste 0 1021.4 1.2 68
2018-11-30 10:00:00 20.9 11 Nordeste 21 Norte 0 1021.3 1.4 73
2018-11-30 09:00:00 18.8 10 Nordeste 15 Norte 0 1020.9 1.4 83
2018-11-30 08:00:00 16.4 12 Norte 18 Nordeste 0 1020.2 0.9 92
2018-11-30 07:00:00 17 9 Nordeste 30 Nordeste 0 1019.9 0.8 89
2018-11-30 06:00:00 17 16 Nordeste 24 Nordeste 0 1019.5 0.1 91
2018-11-30 05:00:00 16.9 12 Nordeste 18 Nordeste 0 1019.3 -0.4 93
2018-11-30 04:00:00 16.9 18 Norte 26 Norte 0 1019.1 -0.6 91
2018-11-30 03:00:00 17.3 9 Nordeste 18 Norte 0 1019.4 -0.7 74
2018-11-30 02:00:00 17.6 8 Noroeste 15 Noroeste 0 1019.7 -0.5 64
2018-11-30 01:00:00 17 7 Noroeste 21 Norte 0 1019.7 -0.5 81
2018-11-30 00:00:00 18.3 15 Norte 28 Noroeste 0 1020.1 0.1 78
2018-11-29 23:00:00 17.8 12 Norte 26 Noroeste 0 1020.2 0.3 82
2018-11-29 22:00:00 18 18 Noroeste 26 Norte 0 1020.2 0.7 83
2018-11-29 21:00:00 18 9 Nordeste 17 Norte 0 1020 1 81
2018-11-29 20:00:00 18.4 12 Norte 15 Norte 0 1019.9 1.4 81
2018-11-29 19:00:00 19.4 9 Norte 18 Nordeste 0 1019.5 1.4 80
2018-11-29 18:00:00 21.4 10 Nordeste 17 Nordeste 0 1019 0.8 65
2018-11-29 17:00:00 22.6 12 Este 18 Este 0 1018.5 -0.1 58
2018-11-29 16:00:00 23.4 13 Este 18 Este 0 1018.1 -1.1 53
2018-11-29 15:00:00 24.2 12 Este 21 Este 0 1018.2 -2 48
2018-11-29 14:00:00 24.3 14 Este 22 Este 0 1018.6 -2.3 47
2018-11-29 13:00:00 24.9 14 Este 24 Este 0 1019.2 -1.6 43
2018-11-29 12:00:00 24.9 13 Este 24 Nordeste 0 1020.2 0.1 49
2018-11-29 11:00:00 24.9 11 Nordeste 21 Norte 0 1020.9 1.1 41
2018-11-29 10:00:00 23.7 9 Este 17 Norte 0 1020.8 1.2 42
2018-11-29 09:00:00 21 12 Norte 21 Norte 0 1020.1 0.7 48
2018-11-29 08:00:00 15.8 13 Norte 18 Noroeste 0 1019.8 0.7 61
2018-11-29 07:00:00 15.6 9 Norte 13 Norte 0 1019.6 0.7 61
2018-11-29 06:00:00 16.5 13 Noroeste 18 Noroeste 0 1019.4 0.7 60
2018-11-29 05:00:00 15.6 12 Norte 15 Noroeste 0 1019.1 0.4 82
2018-11-29 04:00:00 15.5 12 Norte 17 Norte 0 1018.9 0 84
2018-11-29 03:00:00 14 9 Norte 13 Norte 0 1018.7 -0.7 70
2018-11-29 02:00:00 15.5 6 Nordeste 11 Noroeste 0 1018.7 -0.7 66
2018-11-29 01:00:00 15.7 6 Norte 13 Norte 0 1018.9 -0.6 77
2018-11-29 00:00:00 15.8 10 Norte 15 Norte 0 1019.4 0.3 75
2018-11-28 23:00:00 17.7 10 Norte 22 Norte 0 1019.4 0.5 76
2018-11-28 22:00:00 17.2 3 Sudoeste 15 Nordeste 0 1019.5 1.2 68
2018-11-28 21:00:00 18.6 9 Nordeste 18 Noroeste 0 1019.1 1.2 68
2018-11-28 20:00:00 18.7 12 Norte 33 Noroeste 0 1018.9 1.2 67
2018-11-28 12:00:00 21.7 15 Este 22 Este 0 1019.9 0 74
2018-11-28 11:00:00 21.5 13 Este 21 Este 0 1020.2 1 76
2018-11-28 10:00:00 20.8 9 Nordeste 17 Nordeste 0 1020.3 1.3 78
2018-11-28 09:00:00 18.8 9 Norte 13 Norte 0 1019.9 1.5 87
2018-11-28 08:00:00 15.9 10 Norte 17 Norte 0 1019.2 1.1 94
2018-11-28 07:00:00 15.4 10 Norte 13 Norte 0 1019 1.1 93
2018-11-28 06:00:00 16 10 Norte 15 Norte 0 1018.4 0.6 92
2018-11-28 05:00:00 16.5 10 Norte 13 Norte 0 1018.1 0.1 91
2018-11-28 04:00:00 15.9 10 Norte 15 Norte 0 1017.9 -0.4 92
2018-11-28 03:00:00 16.4 13 Norte 17 Nordeste 0 1017.8 -1 88
2018-11-28 02:00:00 17.3 10 Nordeste 15 Nordeste 0 1018 -1 85
2018-11-28 01:00:00 17.2 11 Nordeste 17 Nordeste 0 1018.3 -0.6 84
2018-11-28 00:00:00 16.9 12 Norte 21 Norte 0 1018.8 -0.1 82
2018-11-27 23:00:00 16.8 15 Norte 22 Norte 0 1019 0.6 80
2018-11-27 22:00:00 17.7 13 Nordeste 22 Norte 0 1018.9 0.9 78
2018-11-27 21:00:00 18.2 13 Norte 22 Nordeste 0 1018.9 1.2 77
2018-11-27 20:00:00 18.6 15 Nordeste 24 Norte 0 1018.4 1.1 75
2018-11-27 19:00:00 18.6 13 Norte 28 Norte 0 1018 0.9 74
2018-11-27 18:00:00 19.8 18 Norte 32 Norte 0 1017.7 0.5 68
2018-11-27 17:00:00 21 22 Norte 33 Nordeste 0 1017.3 0 63
2018-11-27 16:00:00 21.7 20 Nordeste 35 Nordeste 0 1017.1 -1 60
2018-11-27 15:00:00 22.8 15 Nordeste 33 Nordeste 0 1017.2 -1.5 56
2018-11-27 14:00:00 22.4 19 Nordeste 33 Nordeste 0 1017.3 -2 57
2018-11-27 13:00:00 22.4 17 Nordeste 33 Nordeste 0 1018.1 -1.3 58
2018-11-27 12:00:00 21.9 15 Nordeste 28 Nordeste 0 1018.7 0.1 59
2018-11-27 11:00:00 21.1 15 Nordeste 28 Nordeste 0 1019.3 0.9 62
2018-11-27 10:00:00 20 14 Nordeste 28 Nordeste 0 1019.4 1.3 65
2018-11-27 09:00:00 18.4 15 Nordeste 21 Nordeste 0 1018.6 0.7 76
2018-11-27 08:00:00 15.4 12 Norte 18 Norte 0 1018.4 0.6 89
2018-11-27 07:00:00 14.8 12 Norte 15 Norte 0 1018.1 -0.3 90
2018-11-27 06:00:00 15 11 Norte 15 Norte 0 1017.9 -0.8 89
2018-11-27 05:00:00 16 9 Norte 15 Norte 0 1017.8 -1 89
2018-11-27 04:00:00 17.2 12 Norte 21 Norte 0 1018.4 -0.6 87
2018-11-27 03:00:00 17 11 Norte 17 Norte 0 1018.7 -0.5 90
2018-11-27 02:00:00 17.6 10 Norte 21 Norte 0 1018.8 -0.5 90
2018-11-27 01:00:00 17.1 12 Norte 21 Norte 0 1019 0.1 91
2018-11-27 00:00:00 17.3 13 Norte 22 Noroeste 0 1019.2 0.2 90
2018-11-26 23:00:00 17.2 12 Norte 17 Norte 0 1019.3 0.8 88
2018-11-26 22:00:00 17.2 11 Norte 15 Norte 0 1018.9 0.5 91
2018-11-26 21:00:00 18.1 13 Norte 18 Norte 0 1019 1.2 90
2018-11-26 20:00:00 18.5 7 Norte 32 Noroeste 0 1018.5 0.6 90
2018-11-26 19:00:00 19.1 11 Norte 42 Noroeste 0 1018.4 0.4 87
2018-11-26 18:00:00 20.2 16 Norte 26 Norte 0 1017.8 -0.1 81
2018-11-26 17:00:00 22 21 Norte 41 Noroeste 0 1017.9 -0.1 71
2018-11-26 16:00:00 23.2 24 Norte 33 Norte 0 1018 -0.9 62
2018-11-26 15:00:00 23.2 20 Norte 32 Norte 0 1017.9 -1.8 60
2018-11-26 14:00:00 22.7 16 Este 26 Este 0 1018 -2.3 70
2018-11-26 13:00:00 22.9 19 Norte 30 Norte 0 1018.9 -0.9 65
2018-11-26 12:00:00 21.7 15 Norte 24 Norte 0 1019.7 0.3 71
2018-11-26 11:00:00 20.8 10 Nordeste 24 Norte 0 1020.3 1 81
2018-11-26 10:00:00 20.9 8 Norte 17 Nordeste 0 1019.8 1 83
2018-11-26 09:00:00 19.5 9 Nordeste 22 Norte 0 1019.4 0.8 86
2018-11-26 08:00:00 18.5 12 Norte 33 Norte 0 1019.3 1 92
2018-11-26 07:00:00 18.3 10 Norte 21 Norte 0 1018.8 -0.2 93
2018-11-26 06:00:00 16.9 11 Norte 21 Norte 0 1018.6 -1.1 95
2018-11-26 05:00:00 17.5 15 Norte 22 Norte 0 1018.3 -1.5 94
2018-11-26 04:00:00 17.3 14 Norte 18 Norte 0 1019 -1 93
2018-11-26 03:00:00 16.1 0 Calma 11 Noroeste 0 1019.7 -0.6 94
2018-11-26 02:00:00 16.4 3 Noroeste 9 Norte 0 1019.8 -1.2 94
2018-11-26 01:00:00 16.8 6 Norte 9 Noroeste 0 1020 -1.2 94
2018-11-26 00:00:00 17.4 5 Norte 11 Norte 0 1020.3 -0.7 92
2018-11-25 23:00:00 18.4 4 Noroeste 9 Oeste 0 1021 0.5 89
2018-11-25 22:00:00 18.2 3 Norte 13 Oeste 0 1021.2 0.8 90
2018-11-25 21:00:00 18.5 5 Este 11 Este 0 1021 1.3 89
2018-11-25 20:00:00 19 6 Nordeste 11 Norte 0 1020.5 1.2 86
2018-11-25 19:00:00 19.6 4 Nordeste 18 Norte 0 1020.4 1.1 82
2018-11-25 18:00:00 20.5 14 Norte 32 Noroeste 0 1019.7 0.4 79
2018-11-25 17:00:00 21.9 14 Norte 42 Noroeste 0 1019.3 -0.2 70
2018-11-25 16:00:00 23.1 20 Norte 39 Norte 0 1019.3 -0.8 65
2018-11-25 15:00:00 23.8 21 Noroeste 41 Oeste 0 1019.3 -1.3 63
2018-11-25 14:00:00 23.9 18 Noroeste 46 Noroeste 0 1019.5 -1.3 63
2018-11-25 13:00:00 23.9 19 Noroeste 39 Noroeste 0 1020.1 -0.6 62
2018-11-25 12:00:00 23.4 19 Noroeste 33 Noroeste 0 1020.6 0.4 66
2018-11-25 11:00:00 23 12 Noroeste 37 Noroeste 0 1020.8 0.9 69
2018-11-25 10:00:00 21.5 4 Noroeste 17 Sur 0 1020.7 1.3 77
2018-11-25 09:00:00 19.6 5 Sudoeste 11 Sudoeste 0 1020.2 1.1 90
2018-11-25 08:00:00 18.9 8 Oeste 33 Oeste 0 1019.9 0.9 89
2018-11-25 07:00:00 18.2 13 Oeste 17 Oeste 0 1019.4 0.4 94
2018-11-25 06:00:00 17.6 11 Sudoeste 13 Sudoeste 0 1019.1 -0.1 97
2018-11-25 05:00:00 17.6 10 Sudoeste -- -- -- 1019 -0.3 95
2018-11-25 04:00:00 18.4 14 Sudoeste 21 Sudoeste 0 1019 -0.4 86
2018-11-25 03:00:00 17.9 16 Oeste 21 Oeste 0 1019.2 -0.6 83
2018-11-25 02:00:00 17.3 13 Sudoeste 21 Oeste 0 1019.3 -0.8 82
2018-11-25 01:00:00 18.1 14 Sudoeste 26 Sudoeste 0 1019.4 -0.7 77
2018-11-25 00:00:00 18.5 16 Sudoeste 30 Sudoeste 0 1019.8 -0.3 76
2018-11-24 23:00:00 18.6 17 Oeste 24 Sudoeste 0 1020.1 0.4 77
2018-11-24 22:00:00 18.1 14 Sudoeste 22 Sudoeste 0 1020.1 0.7 81
2018-11-24 21:00:00 18.4 14 Sudoeste 33 Oeste 0 1020.1 0.9 75
2018-11-24 20:00:00 18.4 12 Oeste 24 Oeste 0 1019.7 0.6 72
2018-11-24 19:00:00 18.8 12 Oeste 28 Oeste 0 1019.4 0.7 69
2018-11-24 18:00:00 19.6 15 Sudoeste 32 Sudoeste 0 1019.2 0.7 63
2018-11-24 17:00:00 20.9 17 Oeste 30 Oeste 0 1019.1 0.4 56
2018-11-24 16:00:00 21.3 18 Oeste 32 Oeste 0 1018.7 -0.5 52
2018-11-24 15:00:00 22.1 19 Oeste 32 Oeste 0 1018.5 -1.2 52
2018-11-24 14:00:00 22 14 Oeste 35 Noroeste 0 1018.7 -1.9 52
2018-11-24 13:00:00 21.9 14 Oeste 30 Oeste 0 1019.2 -1.5 50
2018-11-24 12:00:00 21.3 12 Oeste 26 Oeste 0 1019.7 -0.7 47
2018-11-24 11:00:00 20.6 14 Oeste 26 Sudoeste 0 1020.6 1 57
2018-11-24 10:00:00 19.5 11 Oeste 33 Oeste 0 1020.7 1.4 61
2018-11-24 09:00:00 17.6 9 Oeste 28 Oeste 0 1020.4 1.3 66
2018-11-24 08:00:00 13.9 9 Noroeste 32 Noroeste 0 1019.6 0.8 77
2018-11-24 07:00:00 13.3 9 Noroeste 15 Sudoeste 0 1019.3 0.3 81
2018-11-24 06:00:00 13.7 11 Noroeste 13 Noroeste 0 1019.1 -0.1 79
2018-11-24 05:00:00 13.9 10 Noroeste 15 Noroeste 0 1018.8 -0.4 77
2018-11-24 04:00:00 13.6 13 Noroeste 17 Noroeste 0 1019 -0.1 78
2018-11-24 03:00:00 13.2 9 Noroeste 15 Noroeste 0 1019.2 0 79
2018-11-24 02:00:00 13.9 11 Noroeste 15 Noroeste 0 1019.2 -0.2 78
2018-11-24 01:00:00 13.5 9 Noroeste 18 Norte 0 1019.1 -0.4 80
2018-11-24 00:00:00 13.8 12 Norte 21 Noroeste 0 1019.2 0 83
2018-11-23 23:00:00 14.3 12 Noroeste 17 Norte 0 1019.4 0.8 83
2018-11-23 22:00:00 14.9 12 Norte 17 Noroeste 0 1019.5 1.6 81
2018-11-23 21:00:00 15 9 Norte 17 Norte 0 1019.2 2.2 85
2018-11-23 20:00:00 16.1 12 Norte 42 Norte 0 1018.6 1.9 83
2018-11-23 19:00:00 16.5 18 Norte 42 Noroeste 0 1017.9 1.9 78
2018-11-23 18:00:00 17.6 17 Norte 35 Noroeste 0 1017 1.3 72
2018-11-23 17:00:00 19 23 Norte 37 Noroeste 0 1016.7 1 63
2018-11-23 16:00:00 19.3 24 Norte 35 Norte 0 1016 0.2 64
2018-11-23 15:00:00 17.8 21 Norte 52 Norte 0 1015.7 -0.3 75
2018-11-23 14:00:00 16.2 29 Norte 50 Norte 0.4 1015.7 -0.6 93
2018-11-23 13:00:00 21 28 Norte 52 Norte 0 1015.8 -0.4 57
2018-11-23 12:00:00 20.4 32 Norte 50 Norte 0 1016 0.6 60
2018-11-23 11:00:00 19.9 30 Norte 46 Norte 0 1016.3 1.6 61
2018-11-23 10:00:00 18.6 26 Norte 37 Norte 0 1016.2 2.4 69
2018-11-23 09:00:00 16.7 26 Noroeste 42 Noroeste 0 1015.4 1.9 79
2018-11-23 08:00:00 15.2 19 Noroeste 37 Noroeste 0 1014.7 1.4 80
2018-11-23 07:00:00 15.7 21 Norte 32 Noroeste 0 1013.8 0.6 76
2018-11-23 06:00:00 15.1 9 Oeste 21 Noroeste 0 1013.5 0.4 80
2018-11-23 05:00:00 15.1 16 Noroeste 45 Noroeste 0 1013.3 -0.1 78
2018-11-23 04:00:00 15.5 16 Norte 26 Norte 0 1013.2 -0.2 83
2018-11-23 03:00:00 15.1 7 Norte 13 Norte 0 1013.1 -0.5 91
2018-11-23 02:00:00 15.4 3 Noroeste 24 Noroeste 0 1013.4 -0.2 87
2018-11-23 01:00:00 15.2 4 Nordeste 15 Norte 0 1013.4 -0.2 89
2018-11-23 00:00:00 14.8 11 Noroeste 15 Norte 0 1013.6 0.7 90
2018-11-22 23:00:00 14.4 3 Norte 9 Norte 0 1013.6 1 92
2018-11-22 22:00:00 15.6 7 Noroeste 13 Norte 0 1013.6 1.6 91
2018-11-22 21:00:00 16.1 9 Norte 24 Noroeste 0 1012.9 1.8 91
2018-11-22 20:00:00 17 8 Norte 24 Norte 0 1012.6 1.6 89
2018-11-22 19:00:00 17.4 10 Norte 30 Norte 0 1012 1.2 85
2018-11-22 18:00:00 18.2 7 Oeste 28 Oeste 0 1011.1 0.3 82
2018-11-22 17:00:00 18.5 14 Oeste 28 Oeste 0 1011 -0.2 82
2018-11-22 16:00:00 17.9 15 Sudoeste 30 Oeste 1 1010.8 -1.1 87
2018-11-22 15:00:00 18.3 14 Oeste 37 Oeste 0.8 1010.8 -1.8 85
2018-11-22 14:00:00 18.5 12 Sudoeste 21 Sudoeste 0 1011.2 -2.2 81
2018-11-22 13:00:00 18.1 14 Sur 24 Oeste 0 1011.9 -0.9 84
2018-11-22 12:00:00 17.3 10 Oeste 22 Oeste 0 1012.6 0.7 83
2018-11-22 11:00:00 16.3 8 Oeste 17 Sur 1.8 1013.4 1.8 91
2018-11-22 10:00:00 16.3 11 Sudoeste 37 Oeste 2.9 1012.8 1.5 91
2018-11-22 09:00:00 19.2 17 Sur 28 Sur 0 1011.9 0.8 83
2018-11-22 08:00:00 16.9 3 Noroeste -- -- 0 1011.6 0.4 89
2018-11-22 07:00:00 15.9 0 Calma -- -- 0 1011.3 -0.6 91
2018-11-22 06:00:00 16.6 5 Noroeste 5 Noroeste 0 1011.1 -1.3 88
2018-11-22 05:00:00 17 5 Noroeste 9 Noroeste 0 1011.2 -1.8 89
2018-11-22 04:00:00 17.3 7 Oeste 11 Oeste 0 1011.9 -1.6 89
2018-11-22 03:00:00 17.4 8 Oeste -- -- 0 1012.4 -1.5 88
2018-11-22 02:00:00 16.9 6 Oeste 9 Oeste 0 1013 -1 87
2018-11-22 01:00:00 17.2 8 Oeste 13 Oeste 0 1013.5 -0.4 87
2018-11-22 00:00:00 17.1 9 Oeste 13 Oeste 0 1013.9 -0.1 85
2018-11-21 23:00:00 17.6 5 Sudoeste 11 Oeste 0 1014 0.4 84
2018-11-21 22:00:00 18.7 6 Oeste 13 Oeste 0 1013.9 0.6 84
2018-11-21 21:00:00 19.1 8 Oeste 11 Noroeste 0 1014 1 81
2018-11-21 20:00:00 20 8 Noroeste 17 Sudoeste 0 1013.6 0.6 82
2018-11-21 19:00:00 20.1 12 Sur 17 Sur 0 1013.3 0.4 80
2018-11-21 18:00:00 20.4 12 Sur 17 Sur 0 1013 -0.1 81
2018-11-21 17:00:00 21.3 13 Sur 32 Sur 0 1013 -0.3 76
2018-11-21 16:00:00 22.4 17 Sur 32 Sudoeste 0 1012.9 -1.2 69
2018-11-21 15:00:00 23 28 Sudoeste 37 Sudoeste 0 1013.1 -1.8 59
2018-11-21 14:00:00 23 19 Sur 28 Sudoeste 0 1013.3 -2.2 63
2018-11-21 13:00:00 22.4 16 Sur 22 Sur 0 1014.1 -1.4 65
2018-11-21 12:00:00 22.2 16 Sur 28 Sudoeste 0 1014.9 -0.1 69
2018-11-21 11:00:00 21.1 14 Sudoeste 54 Sudoeste -- 1015.5 0.8 74
2018-11-21 10:00:00 20.5 19 Sudoeste 26 Sudoeste 0 1015.5 1.1 77
2018-11-21 09:00:00 19.5 12 Sudoeste 18 Sudoeste 0 1015 0.4 84
2018-11-21 08:00:00 17.5 6 Oeste 15 Oeste 0 1014.7 0.5 92
2018-11-21 07:00:00 17.5 10 Oeste 15 Oeste 0 1014.4 0.1 92
2018-11-21 06:00:00 17.6 10 Oeste 15 Sudoeste 0 1014.6 0.1 92
2018-11-21 05:00:00 17.8 4 Noroeste 11 Sudoeste 0 1014.2 -0.5 90
2018-11-21 04:00:00 18 9 Oeste 15 Oeste 0 1014.3 -0.9 88
2018-11-21 03:00:00 18.4 10 Oeste 17 Sudoeste 0 1014.5 -0.7 88
2018-11-21 02:00:00 18 7 Oeste 13 Oeste 0 1014.7 -0.8 89
2018-11-21 01:00:00 17.6 9 Oeste 11 Oeste 0 1015.2 -0.2 90
2018-11-21 00:00:00 17.6 2 Noroeste 11 Oeste 0 1015.2 0 89
2018-11-20 23:00:00 18.7 9 Oeste 13 Oeste 0 1015.5 0.9 85
2018-11-20 22:00:00 19.2 6 Oeste 22 Oeste 0 1015.4 1.2 85
2018-11-20 21:00:00 19.9 14 Oeste 21 Oeste 0 1015.2 1.5 81
2018-11-20 20:00:00 20 13 Oeste 22 Oeste 0 1014.6 1 81
2018-11-20 19:00:00 20.5 12 Oeste 26 Oeste 0 1014.2 0.4 76
2018-11-20 18:00:00 21.1 15 Sudoeste 28 Sudoeste 0 1013.7 0.3 70
2018-11-20 17:00:00 22 17 Oeste 32 Oeste 0 1013.6 -0.2 66
2018-11-20 16:00:00 23.1 21 Sudoeste 39 Sudoeste 0 1013.8 -0.8 61
2018-11-20 15:00:00 23.5 24 Sudoeste 37 Sudoeste 0 1013.4 -2.2 59
2018-11-20 14:00:00 22.5 23 Sudoeste 32 Sur 0 1013.8 -1.8 64
2018-11-20 13:00:00 22.6 16 Sur 26 Sur 0 1014.6 -1 64
2018-11-20 12:00:00 21.9 17 Sur 22 Sur 0 1015.6 0.4 61
2018-11-20 11:00:00 21.7 10 Oeste 22 Sudoeste 0 1015.6 1.1 55
2018-11-20 10:00:00 19.9 7 Sur 15 Sudeste 0 1015.6 1.7 69
2018-11-20 09:00:00 17.8 6 Sur 13 Noroeste 0 1015.2 1.9 77
2018-11-20 08:00:00 15.4 9 Noroeste 13 Noroeste 0 1014.5 1.5 83
2018-11-20 07:00:00 14.1 0 Calma 9 Norte 0 1013.9 0.9 87
2018-11-20 06:00:00 14.5 4 Norte 11 Oeste 0 1013.3 0.4 87
2018-11-20 05:00:00 14.4 4 Noroeste 9 Noroeste 0 1013 0 89
2018-11-20 04:00:00 14 6 Oeste 8 Oeste 0 1013 -0.2 91
2018-11-20 03:00:00 14 0 Calma 5 Noroeste 0 1012.9 -0.2 92
2018-11-20 02:00:00 15 2 Norte 8 Norte 0 1013 0 89
2018-11-20 01:00:00 15.3 6 Norte 17 Norte 0 1013.2 0.4 87
2018-11-20 00:00:00 16 15 Norte 21 Norte 0 1013.1 0.7 84
2018-11-19 23:00:00 15.6 5 Noroeste 9 Norte 0 1013 1.2 85
2018-11-19 22:00:00 17.2 5 Norte 9 Noroeste 0 1012.8 1.9 79
2018-11-19 21:00:00 16.9 4 Norte 9 Norte 0 1012.4 2.1 83
2018-11-19 20:00:00 17.7 3 Nordeste 21 Nordeste 0 1011.8 1.7 77
2018-11-19 19:00:00 18.4 9 Nordeste 21 Nordeste 0 1010.9 1.3 70
2018-11-19 18:00:00 18.5 5 Noroeste 24 Oeste 0 1010.3 1 74
2018-11-19 17:00:00 20 21 Oeste 46 Noroeste 0 1010.1 0.4 66
2018-11-19 16:00:00 20.1 26 Noroeste 50 Oeste 0 1009.6 -0.5 68
2018-11-19 15:00:00 21.3 27 Noroeste 39 Noroeste 0 1009.3 -1.5 57
2018-11-19 14:00:00 20.9 26 Noroeste 48 Norte 0 1009.7 -1.4 71
2018-11-19 13:00:00 21.6 21 Noroeste 37 Oeste 0 1010.1 -0.7 54
2018-11-19 12:00:00 21.4 22 Noroeste 35 Noroeste 0 1010.8 0.5 54
2018-11-19 11:00:00 20.7 18 Oeste 33 Oeste 0 1011.1 1.1 62
2018-11-19 10:00:00 19.6 16 Oeste 30 Noroeste 0 1010.8 1.4 67
2018-11-19 09:00:00 18 13 Noroeste 24 Noroeste 0 1010.3 1.4 76
2018-11-19 08:00:00 15.6 13 Norte 33 Oeste 1.2 1010 1.6 89
2018-11-19 07:00:00 16.6 14 Oeste 21 Oeste 0 1009.4 1.3 77
2018-11-19 06:00:00 15.6 12 Sudoeste 28 Oeste 0.1 1008.9 0.4 84
2018-11-19 05:00:00 17.3 13 Oeste 24 Oeste 0 1008.4 -0.3 72
2018-11-19 04:00:00 17.1 16 Oeste 24 Oeste 0 1008.1 -1.2 77
2018-11-19 03:00:00 16.9 12 Oeste 21 Sudoeste 0 1008.5 -0.9 78
2018-11-19 02:00:00 16.6 10 Oeste 21 Oeste 0 1008.7 -1 78
2018-11-19 01:00:00 17.4 13 Oeste 22 Oeste 0 1009.3 -0.8 72
2018-11-19 00:00:00 17.6 14 Noroeste 24 Noroeste 0 1009.4 -0.8 74
2018-11-18 23:00:00 17.7 15 Noroeste 35 Noroeste 0 1009.7 0.1 72
2018-11-18 22:00:00 17.2 14 Noroeste 24 Noroeste 0 1010.1 1 77
2018-11-18 21:00:00 16.8 16 Noroeste 39 Noroeste 0.3 1010.2 1.3 81
2018-11-18 20:00:00 17.7 21 Noroeste 45 Oeste 0 1009.6 0.8 74
2018-11-18 19:00:00 18.5 24 Noroeste 32 Oeste 0 1009.1 0.2 70
2018-11-18 18:00:00 18.7 26 Oeste 35 Oeste 0 1008.9 0.1 67
2018-11-18 17:00:00 19.4 25 Oeste 39 Oeste 0 1008.8 -0.3 70
2018-11-18 16:00:00 19.3 28 Oeste 45 Oeste 0.6 1008.9 -0.9 74
2018-11-18 15:00:00 21.2 32 Oeste 46 Oeste 0 1008.8 -1.6 54
2018-11-18 14:00:00 21.6 27 Oeste 42 Oeste 0 1009.1 -1.4 56
2018-11-18 13:00:00 21.3 28 Oeste 42 Oeste 0 1009.8 -0.6 53
2018-11-18 12:00:00 20.4 24 Oeste 46 Oeste 0.1 1010.4 0.3 65
2018-11-18 11:00:00 20.9 24 Oeste 37 Oeste 0 1010.5 1.3 56
2018-11-18 10:00:00 20.3 21 Oeste 32 Oeste 0 1010.4 1.7 60
2018-11-18 09:00:00 19.7 21 Oeste 33 Noroeste 0 1010.1 1.9 64
2018-11-18 08:00:00 18.1 21 Oeste 30 Noroeste 0 1009.2 1 67
2018-11-18 07:00:00 15.9 9 Sudoeste 35 Noroeste 0 1008.7 0.8 76
2018-11-18 06:00:00 18.1 25 Noroeste 39 Noroeste 0 1008.2 0 62
2018-11-18 05:00:00 18.4 24 Oeste 37 Oeste 0 1008.2 -0.4 65
2018-11-18 04:00:00 18.3 28 Noroeste 39 Oeste 0 1007.9 -0.6 66
2018-11-18 03:00:00 17.9 18 Oeste 33 Noroeste 0 1008.2 -0.2 68
2018-11-18 02:00:00 17.7 14 Oeste 30 Noroeste 0 1008.6 0.1 74
2018-11-18 01:00:00 18.8 23 Noroeste 39 Noroeste 0 1008.5 0 72
2018-11-18 00:00:00 18.7 23 Noroeste 33 Noroeste 0 1008.4 0.4 71
2018-11-17 23:00:00 18.8 18 Noroeste 33 Oeste 0 1008.5 0.9 74
2018-11-17 22:00:00 19.3 16 Oeste 37 Noroeste 0 1008.5 1.6 75
2018-11-17 21:00:00 19.5 22 Oeste 35 Oeste 0 1008 1.3 79
2018-11-17 20:00:00 19.6 10 Oeste 46 Noroeste 0 1007.6 1.3 79
2018-11-17 19:00:00 19.7 14 Oeste 30 Oeste 0 1006.9 1 80
2018-11-17 18:00:00 19.5 14 Sudoeste 35 Oeste 0 1006.7 0.3 84
2018-11-17 17:00:00 19.5 22 Oeste 48 Sudoeste 2.3 1006.3 -0.7 85
2018-11-17 16:00:00 20.4 28 Sudoeste 45 Sudoeste 0.6 1005.9 -1.6 89
2018-11-17 15:00:00 22 33 Sudoeste 48 Sudoeste 0.2 1006.4 -1.9 77
2018-11-17 14:00:00 23.2 40 Sudoeste 54 Sudoeste 0 1007 -2.2 63
2018-11-17 13:00:00 23.6 36 Sudoeste -- -- -- 1007.5 -2.2 60
2018-11-17 12:00:00 23.1 23 Sur 33 Sur 0 1008.3 -1.2 68
2018-11-17 11:00:00 22.2 28 Sur 33 Sur 0 1009.2 -0.7 67
2018-11-17 10:00:00 21.2 27 Sur 39 Sur 0 1009.7 0.4 71
2018-11-17 09:00:00 20.5 24 Sur 35 Sur 0 1009.5 0.1 72
2018-11-17 08:00:00 18 12 Oeste 32 Sur 0 1009.9 -0.2 81
2018-11-17 07:00:00 18.7 25 Sur 32 Sur 0 1009.3 -1.1 80
2018-11-17 06:00:00 18.3 23 Sur 28 Sur 0 1009.4 -1.9 79
2018-11-17 05:00:00 15.7 11 Sudoeste 18 Sudoeste 0 1010.1 -1.2 84
2018-11-17 04:00:00 15.9 9 Oeste 13 Oeste 0 1010.4 -1.3 80
2018-11-17 03:00:00 16.1 10 Oeste 13 Oeste 0 1011.3 -0.8 81
2018-11-17 02:00:00 16.1 9 Noroeste 13 Oeste 0 1011.3 -1.2 75
2018-11-17 01:00:00 15.6 9 Oeste 13 Oeste 0 1011.7 -0.8 78
2018-11-17 00:00:00 15.4 0 Calma 8 Oeste 0 1012.1 0.3 82
2018-11-16 23:00:00 16.3 5 Norte 11 Oeste 0 1012.5 0.4 80
2018-11-16 22:00:00 17.7 6 Sur 15 Oeste 0 1012.5 0.9 75
2018-11-16 21:00:00 18.3 8 Oeste 15 Oeste 0 1011.8 0.9 73
2018-11-16 20:00:00 18.7 11 Oeste 15 Oeste 0 1012.1 1.1 74
2018-11-16 19:00:00 19.5 5 Sudoeste 17 Sudoeste 0 1011.6 0.1 68
2018-11-16 18:00:00 20.3 13 Oeste 28 Oeste 0 1010.9 -0.6 64
2018-11-16 17:00:00 21.7 17 Oeste 46 Oeste 0 1011 -0.8 55
2018-11-16 16:00:00 22.3 24 Oeste 39 Oeste 0 1011.5 -0.7 55
2018-11-16 15:00:00 23.1 27 Oeste 42 Oeste 0 1011.5 -1 51
2018-11-16 14:00:00 22.3 22 Oeste 41 Oeste 0 1011.8 -0.7 54
2018-11-16 13:00:00 22.9 23 Oeste 41 Oeste 0 1012.2 0.3 49
2018-11-16 12:00:00 22.4 24 Oeste 37 Oeste 0 1012.5 0.3 42
2018-11-16 11:00:00 21.6 25 Oeste 39 Oeste 0 1012.5 0.6 56
2018-11-16 10:00:00 20.8 26 Oeste 39 Oeste 0 1011.9 0.1 60
2018-11-16 09:00:00 19.3 21 Oeste 33 Oeste 0 1012.2 0.7 65
2018-11-16 08:00:00 16.3 13 Oeste 37 Oeste 0 1011.9 0.2 78
2018-11-16 07:00:00 16 12 Oeste 33 Oeste 0 1011.8 0.4 81
2018-11-16 06:00:00 15.9 12 Oeste 30 Noroeste 0 1011.5 0 76
2018-11-16 05:00:00 16.1 23 Noroeste 37 Noroeste 0.1 1011.7 0.2 83
2018-11-16 04:00:00 15.7 12 Oeste 26 Oeste 0.1 1011.4 -0.3 83
2018-11-16 03:00:00 16.1 12 Oeste 30 Noroeste 0.8 1011.5 -0.6 82
2018-11-16 02:00:00 16.7 14 Oeste 18 Noroeste 0 1011.5 -1 74
2018-11-16 01:00:00 16.4 12 Oeste 22 Oeste 0 1011.7 -0.7 76
2018-11-16 00:00:00 16.3 13 Oeste 21 Oeste 0 1012.1 -0.1 81
2018-11-15 23:00:00 15.7 7 Sur 11 Oeste 0 1012.5 0.7 87
2018-11-15 22:00:00 16.2 8 Oeste -- -- 0 1012.4 0.8 89
2018-11-15 21:00:00 17.5 9 Oeste 15 Oeste 0 1012.2 1.2 85
2018-11-15 20:00:00 16.8 8 Oeste 13 Oeste 0 1011.8 1.1 85
2018-11-15 19:00:00 17.4 9 Sudoeste 33 Oeste 0 1011.6 0.5 84
2018-11-15 18:00:00 19.1 14 Oeste 37 Oeste 0 1011 -0.2 73
2018-11-15 17:00:00 20.2 14 Sudoeste 22 Sudoeste 0 1010.7 -0.8 68
2018-11-15 16:00:00 18.5 8 Sudoeste 30 Oeste 0.2 1011.1 -0.6 77
2018-11-15 15:00:00 18.8 23 Noroeste 35 Noroeste 0.6 1011.2 -1.3 87
2018-11-15 14:00:00 19.6 28 Oeste 45 Oeste 0.3 1011.5 -1.9 85
2018-11-15 13:00:00 22.7 30 Sudoeste 39 Sudoeste 0 1011.7 -2.1 64
2018-11-15 12:00:00 22.2 27 Sur 35 Sur 0 1012.5 -0.9 63
2018-11-15 11:00:00 21.4 23 Sur 30 Sur 0 1013.4 0.2 67
2018-11-15 10:00:00 20.2 12 Sur 17 Sur 0 1013.8 1.1 69
2018-11-15 09:00:00 19.4 6 Sur 11 Sur 0 1013.4 0.9 66
2018-11-15 08:00:00 16.1 8 Oeste 26 Oeste 0 1013.2 1.2 77
2018-11-15 07:00:00 14.8 8 Oeste 13 Oeste 0 1012.7 0.4 81
2018-11-15 06:00:00 15.3 10 Oeste 15 Oeste 0 1012.5 0.2 79
2018-11-15 05:00:00 14.1 9 Noroeste 11 Noroeste 0 1012 -1.1 80
2018-11-15 04:00:00 14.9 8 Noroeste 13 Oeste 0 1012.3 -1.3 79
2018-11-15 03:00:00 14 6 Noroeste 9 Noroeste 0 1012.3 -1.9 82
2018-11-15 02:00:00 14.2 4 Noroeste 13 Norte 0 1013.1 -1.1 81
2018-11-15 01:00:00 15.6 6 Oeste 15 Noroeste 0 1013.6 -0.4 76
2018-11-15 00:00:00 15.6 8 Noroeste 11 Noroeste 0 1014.2 0.3 76
2018-11-14 23:00:00 15.8 4 Norte 17 Norte 0 1014.2 0.6 75
2018-11-14 22:00:00 16.5 14 Norte 17 Norte 0 1014 0.6 75
2018-11-14 21:00:00 18.4 9 Norte 22 Norte 0 1013.9 0.7 69
2018-11-14 20:00:00 18.5 18 Norte 26 Norte 0 1013.6 0.6 68
2018-11-14 19:00:00 18.6 17 Norte 35 Norte 0 1013.4 0.4 67
2018-11-14 18:00:00 19.6 21 Norte 39 Noroeste 0 1013.2 0.6 62
2018-11-14 17:00:00 20.3 24 Norte 32 Noroeste 0 1013 0.1 60
2018-11-14 16:00:00 21.1 20 Norte 32 Norte 0 1013 -0.5 54
2018-11-14 15:00:00 21.4 19 Norte 42 Norte 0 1012.6 -1.6 53
2018-11-14 14:00:00 21.6 20 Norte 33 Norte 0 1012.9 -1.8 53
2018-11-14 13:00:00 22.1 20 Norte 41 Norte 0 1013.5 -1.1 53
2018-11-14 12:00:00 22.9 19 Norte 32 Norte 0 1014.2 -0.4 51
2018-11-14 11:00:00 22.3 21 Norte 30 Norte 0 1014.7 0.5 54
2018-11-14 10:00:00 21 22 Norte 32 Norte 0 1014.6 0.7 60
2018-11-14 09:00:00 19.4 16 Norte 24 Norte 0 1014.6 0.9 70
2018-11-14 08:00:00 16.5 17 Norte 22 Norte 0 1014.2 0.5 82
2018-11-14 07:00:00 16.5 15 Norte 22 Norte 0 1013.9 -0.1 82
2018-11-14 06:00:00 16.8 17 Norte 32 Norte 0 1013.7 -0.4 81
2018-11-14 05:00:00 17.7 18 Norte 30 Norte 0 1013.7 -0.7 80
2018-11-14 04:00:00 17.4 17 Norte 22 Norte 0 1014 -0.9 84
2018-11-14 03:00:00 17.7 19 Norte 30 Norte 0 1014.1 -1.2 82
2018-11-14 02:00:00 17.3 20 Norte 37 Norte 0 1014.4 -1.2 86
2018-11-14 01:00:00 17 14 Norte 35 Norte 0 1014.9 -1 83
2018-11-14 00:00:00 17.7 24 Norte 39 Norte 0 1015.3 -0.5 79
2018-11-13 23:00:00 17.6 23 Norte 37 Norte 0 1015.6 0.1 71
2018-11-13 22:00:00 18 25 Norte 39 Norte 0 1015.9 0.6 66
2018-11-13 21:00:00 17.6 24 Norte 32 Norte 0 1015.8 0.8 68
2018-11-13 20:00:00 18.2 19 Norte 37 Norte 0 1015.5 0.7 64
2018-11-13 19:00:00 18.6 23 Norte 33 Norte 0 1015.3 0.5 64
2018-11-13 18:00:00 19.8 24 Norte 48 Norte 0 1015 0.2 61
2018-11-13 17:00:00 21.4 33 Norte 52 Norte 0 1014.8 -0.2 55
2018-11-13 16:00:00 22.2 37 Norte 52 Norte 0 1014.8 -0.7 49
2018-11-13 15:00:00 22.7 40 Norte 52 Norte 0 1014.8 -1.2 48
2018-11-13 14:00:00 22.4 33 Norte 55 Norte 0 1015 -1.6 49
2018-11-13 13:00:00 22.9 39 Norte 55 Norte 0 1015.5 -1.1 50
2018-11-13 12:00:00 22.2 43 Norte 52 Norte 0 1016 -0.2 49
2018-11-13 11:00:00 20.6 31 Norte 48 Norte 0 1016.6 0.5 59
2018-11-13 10:00:00 21.2 37 Norte 52 Norte 0 1016.6 0.9 52
2018-11-13 09:00:00 20 33 Norte 48 Norte 0 1016.2 0.8 60
2018-11-13 08:00:00 17.4 27 Norte 41 Norte 0 1016.1 0.6 72
2018-11-13 07:00:00 16.7 24 Norte 35 Norte 0 1015.7 0.4 73
2018-11-13 06:00:00 16.7 26 Norte 42 Norte 0 1015.4 -0.1 74
2018-11-13 05:00:00 16.8 26 Norte 33 Norte 0 1015.5 -0.3 73
2018-11-13 04:00:00 16.9 23 Norte 37 Norte 0 1015.3 -0.6 69
2018-11-13 03:00:00 16.7 20 Norte 32 Norte 0 1015.5 -1 71
2018-11-13 02:00:00 16.6 23 Norte 33 Norte 0 1015.8 -1 70
2018-11-13 01:00:00 17.1 25 Norte 33 Norte 0 1015.9 -1 66
2018-11-13 00:00:00 17.2 21 Norte 33 Norte 0 1016.5 -0.1 75
2018-11-12 23:00:00 17.2 18 Norte 32 Norte 0 1016.8 0.7 73
2018-11-12 22:00:00 17.5 17 Norte 24 Norte 0 1016.9 1.2 70
2018-11-12 21:00:00 17.7 19 Noroeste 39 Norte 0 1016.6 1.6 68
2018-11-12 20:00:00 18 19 Norte 37 Norte 0 1016.1 1.6 67
2018-11-12 19:00:00 18.4 23 Norte 48 Noroeste 0 1015.7 1.2 70
2018-11-12 18:00:00 18.7 28 Norte 50 Norte 0 1015 0.9 69
2018-11-12 17:00:00 19.3 25 Norte 65 Norte 0.2 1014.5 0.4 73
2018-11-12 16:00:00 21.6 30 Norte 48 Norte 0 1014.5 0 61
2018-11-12 15:00:00 22.3 40 Noroeste 55 Noroeste 0 1014.1 -1.1 59
2018-11-12 14:00:00 21.6 32 Norte 55 Norte 0 1014.1 -1.7 66
2018-11-12 13:00:00 21.9 24 Norte 41 Norte 0 1014.5 -0.9 66
2018-11-12 12:00:00 20.1 12 Nordeste 37 Norte 0 1015.2 0.7 81
2018-11-12 11:00:00 18.9 21 Norte 33 Norte 0 1015.8 1.9 87
2018-11-12 10:00:00 19 13 Nordeste 32 Norte 0 1015.4 1.9 88
2018-11-12 09:00:00 18.3 26 Noroeste 42 Norte 0 1014.5 1.4 85
2018-11-12 08:00:00 18 28 Noroeste 50 Noroeste 0 1013.9 0.7 88
2018-11-12 07:00:00 18.7 13 Oeste 18 Oeste 0 1013.5 0.5 87
2018-11-12 06:00:00 18.7 11 Oeste 17 Oeste 0 1013.1 -0.3 85
2018-11-12 05:00:00 17.6 9 Oeste 15 Oeste 0 1013.2 -0.9 87
2018-11-12 04:00:00 17.7 12 Oeste 13 Oeste 0 1013 -1.5 87
2018-11-12 03:00:00 16.7 3 Noroeste 13 Oeste 0 1013.4 -1.7 87
2018-11-12 02:00:00 17.2 8 Noroeste 26 Norte 0 1014.1 -1.2 85
2018-11-12 01:00:00 17.8 8 Noroeste 13 Noroeste 0 1014.5 -0.9 82
2018-11-12 00:00:00 17 6 Oeste 11 Noroeste 0 1015.1 -0.1 82
2018-11-11 23:00:00 17 4 Nordeste 11 Noroeste 0 1015.3 0.7 81
2018-11-11 22:00:00 17.5 3 Noroeste 17 Noroeste 0 1015.4 1.3 80
2018-11-11 21:00:00 18.7 6 Noroeste 15 Noroeste 0 1015.2 1.3 76
2018-11-11 20:00:00 19.8 4 Norte 17 Noroeste 0 1014.6 1 72
2018-11-11 19:00:00 20.1 9 Norte 30 Noroeste 0 1014.1 0.2 72
2018-11-11 18:00:00 20.7 17 Norte 37 Noroeste 0 1013.9 0.1 68
2018-11-11 17:00:00 22.4 16 Norte 45 Noroeste 0 1013.6 -0.4 59
2018-11-11 16:00:00 23.3 24 Noroeste 39 Noroeste 0 1013.9 -0.7 53
2018-11-11 15:00:00 23.8 24 Norte 39 Noroeste 0 1013.8 -1.9 50
2018-11-11 14:00:00 23 9 Norte 28 Noroeste 0 1014 -2.4 59
2018-11-11 13:00:00 23.3 14 Norte 26 Norte 0 1014.6 -1.7 56
2018-11-11 12:00:00 23.4 13 Norte 35 Noroeste 0 1015.7 -0.2 53
2018-11-11 11:00:00 23.1 21 Norte 35 Norte 0 1016.4 0.8 55
2018-11-11 10:00:00 22 22 Norte 33 Norte 0 1016.3 1 60
2018-11-11 09:00:00 20.1 13 Norte 18 Norte 0 1015.9 0.9 68
2018-11-11 08:00:00 16.2 10 Norte 17 Norte 0 1015.6 0.8 85
2018-11-11 07:00:00 15 11 Norte 15 Nordeste 0 1015.3 0.1 86
2018-11-11 06:00:00 15 12 Norte 17 Norte 0 1015 -0.7 87
2018-11-11 05:00:00 15.1 13 Norte 17 Norte 0 1014.8 -1.4 86
2018-11-11 04:00:00 15.1 8 Norte 15 Norte 0 1015.2 -1.4 84
2018-11-11 03:00:00 15.9 10 Norte 15 Norte 0 1015.7 -1.4 82
2018-11-11 02:00:00 15.5 10 Norte 17 Norte 0 1016.2 -1.3 82
2018-11-11 01:00:00 16.7 14 Norte 18 Norte 0 1016.6 -1 78
2018-11-11 00:00:00 16.4 10 Norte 18 Norte 0 1017.1 -0.1 78
2018-11-10 23:00:00 16.8 12 Norte 18 Norte 0 1017.5 0.6 78
2018-11-10 22:00:00 17 13 Norte 18 Norte 0 1017.6 1.1 76
2018-11-10 21:00:00 17.9 13 Norte 30 Norte 0 1017.2 0.7 73
2018-11-10 20:00:00 18.5 17 Nordeste 30 Norte 0 1016.9 0.2 69
2018-11-10 19:00:00 18.8 17 Norte 37 Norte 0 1016.5 -0.3 67
2018-11-10 18:00:00 20.1 27 Norte 50 Noroeste 0 1016.5 -0.2 59
2018-11-10 17:00:00 21.9 28 Norte 39 Norte 0 1016.7 -0.4 55
2018-11-10 16:00:00 22.5 27 Norte 45 Norte 0 1016.8 -1.1 52
2018-11-10 15:00:00 23.3 29 Norte 42 Norte 0 1016.7 -2 50
2018-11-10 14:00:00 23.4 26 Norte 41 Norte 0 1017.1 -2.2 51
2018-11-10 13:00:00 22.7 25 Norte 39 Norte 0 1017.9 -1.2 52
2018-11-10 12:00:00 22.3 26 Norte 39 Norte 0 1018.7 -0.3 53
2018-11-10 11:00:00 21.9 27 Norte 48 Norte 0 1019.3 0.5 55
2018-11-10 10:00:00 21.5 32 Norte 46 Norte 0 1019.1 0.7 56
2018-11-10 09:00:00 20.1 27 Norte 37 Norte 0 1019 0.9 61
2018-11-10 08:00:00 17.3 15 Norte 22 Norte 0 1018.8 0.8 74
2018-11-10 07:00:00 16.5 12 Nordeste 22 Nordeste 0 1018.4 0.3 79
2018-11-10 06:00:00 16.5 11 Norte 30 Norte 0 1018.1 -0.5 77
2018-11-10 05:00:00 17.2 20 Norte 30 Norte 0 1018 -1.2 73
2018-11-10 04:00:00 16.8 15 Norte 24 Norte 0 1018.1 -1.5 74
2018-11-10 03:00:00 16.8 16 Norte 26 Norte 0 1018.6 -1.4 75
2018-11-10 02:00:00 16.7 14 Norte 22 Norte 0 1019.2 -1.3 74
2018-11-10 01:00:00 17.9 18 Norte 30 Norte 0 1019.6 -1 71
2018-11-10 00:00:00 17.4 22 Norte 28 Norte 0 1020 -0.3 72